Time;durP1;ratioP1;P1;durP2;ratioP2;P2;SDS_P1;SDS_P2;PMS_P1;PMS_P2;Temp;Humidity;BMP_temperature;BMP_pressure;BME280_temperature;BME280_humidity;BME280_pressure;Samples;Min_cycle;Max_cycle;Signal;HPM_P1;HPM_P2
2023/04/10 00:00:00;;;;;;;35.75;23.58;;;;;;;7.43;61.77;102464.25;7392011;19;20486;-57
2023/04/10 00:02:25;;;;;;;38.58;24.58;;;;;;;7.40;61.94;102471.44;7387634;19;20022;-57
2023/04/10 00:04:51;;;;;;;35.75;23.77;;;;;;;7.28;62.30;102462.22;7393752;19;20446;-57
2023/04/10 00:07:16;;;;;;;37.72;25.00;;;;;;;7.33;62.35;102467.31;7393457;19;19991;-58
2023/04/10 00:09:42;;;;;;;35.53;24.05;;;;;;;7.22;62.78;102467.75;7391238;19;20467;-58
2023/04/10 00:12:09;;;;;;;35.53;23.63;;;;;;;7.13;63.17;102462.84;7391911;19;19987;-58
2023/04/10 00:14:36;;;;;;;35.30;23.50;;;;;;;7.02;63.70;102461.50;7391367;19;20093;-57
2023/04/10 00:17:01;;;;;;;36.80;23.80;;;;;;;6.91;64.36;102460.19;7393917;19;20346;-57
2023/04/10 00:19:27;;;;;;;36.70;24.52;;;;;;;6.98;64.33;102457.25;7391568;19;19998;-57
2023/04/10 00:21:52;;;;;;;33.30;22.60;;;;;;;7.16;63.75;102457.44;7390403;19;19997;-58
2023/04/10 00:24:18;;;;;;;36.53;23.42;;;;;;;7.05;64.20;102457.03;7393505;19;20467;-58
2023/04/10 00:26:43;;;;;;;36.25;25.15;;;;;;;7.02;64.55;102453.56;7392588;19;20474;-57
2023/04/10 00:29:09;;;;;;;36.58;24.20;;;;;;;6.98;64.76;102446.69;7393077;19;20009;-57
2023/04/10 00:31:34;;;;;;;39.28;24.88;;;;;;;6.88;65.11;102439.19;7392174;19;20334;-57
2023/04/10 00:34:00;;;;;;;37.15;24.60;;;;;;;6.83;65.43;102441.16;7393481;19;19990;-58
2023/04/10 00:36:26;;;;;;;38.33;25.98;;;;;;;6.84;65.59;102442.84;7393127;19;20007;-57
2023/04/10 00:38:52;;;;;;;35.15;23.70;;;;;;;6.73;66.21;102436.19;7391516;19;20015;-57
2023/04/10 00:41:18;;;;;;;38.63;24.95;;;;;;;6.67;66.55;102435.59;7390775;19;20637;-57
2023/04/10 00:43:43;;;;;;;42.40;25.50;;;;;;;6.66;66.96;102436.50;7392372;19;20363;-57
2023/04/10 00:46:10;;;;;;;43.22;26.27;;;;;;;6.76;66.55;102427.31;7393115;19;20006;-57
2023/04/10 00:48:36;;;;;;;37.15;25.60;;;;;;;6.89;66.13;102428.56;7392686;19;20011;-56
2023/04/10 00:51:03;;;;;;;41.33;26.25;;;;;;;6.95;65.97;102423.00;7391651;19;20007;-56
2023/04/10 00:53:29;;;;;;;37.78;25.75;;;;;;;7.05;65.69;102412.09;7391954;19;20007;-57
2023/04/10 00:55:56;;;;;;;37.85;25.17;;;;;;;7.05;66.06;102414.75;7390954;19;20029;-56
2023/04/10 00:58:21;;;;;;;38.42;25.17;;;;;;;7.03;66.17;102415.63;7391074;19;20002;-57
2023/04/10 01:00:47;;;;;;;39.10;26.58;;;;;;;6.99;66.68;102410.53;7391037;19;20007;-57
2023/04/10 01:03:15;;;;;;;40.55;26.33;;;;;;;7.07;66.19;102405.81;7390048;19;19998;-56
2023/04/10 01:05:50;;;;;;;43.00;27.23;;;;;;;7.11;66.37;102417.97;7391836;19;20006;-57
2023/04/10 01:08:38;;;;;;;39.17;26.17;;;;;;;7.09;66.60;102397.84;7387732;19;20363;-57
2023/04/10 01:11:17;;;;;;;37.83;26.05;;;;;;;7.08;66.73;102406.66;7389015;19;20367;-56
2023/04/10 01:14:15;;;;;;;41.63;27.05;;;;;;;7.13;66.86;102399.44;7391584;19;20003;-57
2023/04/10 01:17:06;;;;;;;41.58;27.15;;;;;;;7.14;66.90;102403.78;7389642;19;20066;-57
2023/04/10 01:19:50;;;;;;;38.13;26.63;;;;;;;7.12;66.75;102398.56;7387378;19;19999;-57
2023/04/10 01:22:19;;;;;;;43.55;27.67;;;;;;;7.18;66.52;102397.44;7389586;19;20121;-57
2023/04/10 01:25:03;;;;;;;42.20;27.40;;;;;;;7.15;66.94;102389.63;7391494;19;20018;-57
2023/04/10 01:27:50;;;;;;;39.38;26.48;;;;;;;7.22;66.61;102393.75;7391447;19;20033;-58
2023/04/10 01:30:20;;;;;;;43.42;28.13;;;;;;;7.22;66.81;102388.47;7390958;19;20010;-58
2023/04/10 01:32:48;;;;;;;41.83;28.40;;;;;;;7.25;66.49;102388.34;7390089;19;20090;-57
2023/04/10 01:35:15;;;;;;;42.92;27.88;;;;;;;7.18;66.99;102385.09;7390686;19;20010;-57
2023/04/10 01:37:43;;;;;;;40.28;27.98;;;;;;;7.22;67.09;102388.47;7391690;19;20013;-58
2023/04/10 01:40:13;;;;;;;44.47;28.92;;;;;;;7.22;66.89;102383.16;7388460;19;20007;-58
2023/04/10 01:42:51;;;;;;;44.25;30.67;;;;;;;7.01;68.10;102377.88;7391026;19;19999;-57
2023/04/10 01:45:20;;;;;;;43.72;28.73;;;;;;;7.08;67.54;102382.88;7391002;19;20062;-57
2023/04/10 01:47:47;;;;;;;45.08;29.40;;;;;;;7.11;67.63;102380.97;7391447;19;19995;-57
2023/04/10 01:50:13;;;;;;;44.80;28.27;;;;;;;7.19;67.28;102380.66;7390290;19;19998;-57
2023/04/10 01:52:41;;;;;;;44.72;30.17;;;;;;;7.14;67.26;102383.50;7390922;19;20003;-56
2023/04/10 01:55:07;;;;;;;46.10;31.08;;;;;;;7.13;67.33;102379.13;7391740;19;19998;-57
2023/04/10 01:57:34;;;;;;;44.25;29.27;;;;;;;7.15;67.38;102377.28;7391695;19;19994;-56
2023/04/10 02:00:00;;;;;;;44.05;29.08;;;;;;;7.20;67.25;102377.09;7389208;19;20216;-57
2023/04/10 02:02:32;;;;;;;46.10;29.90;;;;;;;7.18;67.23;102371.00;7388203;19;19995;-57
2023/04/10 02:04:58;;;;;;;45.20;29.92;;;;;;;7.13;67.31;102359.78;7389721;19;19999;-57
2023/04/10 02:07:51;;;;;;;45.67;30.95;;;;;;;7.08;67.51;102359.97;7390828;19;20095;-57
2023/04/10 02:10:28;;;;;;;45.60;30.80;;;;;;;7.08;67.38;102356.44;7389559;19;19998;-57
2023/04/10 02:13:04;;;;;;;45.50;30.27;;;;;;;6.98;67.59;102364.78;7390511;19;19991;-57
2023/04/10 02:15:31;;;;;;;44.95;29.88;;;;;;;7.02;67.49;102366.38;7390601;19;20031;-57
2023/04/10 02:17:59;;;;;;;46.30;30.95;;;;;;;7.11;67.09;102361.63;7391080;19;19994;-57
2023/04/10 02:20:25;;;;;;;45.28;30.65;;;;;;;6.95;67.80;102349.03;7386965;19;20562;-57
2023/04/10 02:22:52;;;;;;;47.53;31.92;;;;;;;6.97;67.74;102360.41;7390448;19;20002;-57
2023/04/10 02:25:18;;;;;;;46.92;31.60;;;;;;;6.93;67.86;102358.81;7388300;19;20484;-57
2023/04/10 02:27:43;;;;;;;46.60;30.80;;;;;;;6.92;67.67;102343.03;7397755;19;20002;-57
2023/04/10 02:30:10;;;;;;;44.33;29.42;;;;;;;6.92;67.94;102351.81;7396699;19;19995;-57
2023/04/10 02:32:35;;;;;;;45.67;30.80;;;;;;;6.88;67.75;102344.91;7397394;19;20006;-56
2023/04/10 02:35:02;;;;;;;44.33;29.77;;;;;;;6.90;67.64;102335.16;7396225;19;19999;-57
2023/04/10 02:37:28;;;;;;;41.95;29.77;;;;;;;6.95;67.35;102333.19;7397327;19;20003;-58
2023/04/10 02:39:54;;;;;;;46.08;29.45;;;;;;;6.88;67.68;102337.00;7393952;19;20139;-57
2023/04/10 02:42:19;;;;;;;44.70;30.80;;;;;;;6.63;68.54;102338.94;7394201;19;19999;-57
2023/04/10 02:44:46;;;;;;;45.17;30.55;;;;;;;6.74;68.41;102339.38;7395947;19;20003;-57
2023/04/10 02:47:11;;;;;;;45.42;31.15;;;;;;;6.78;68.10;102335.69;7397253;19;20003;-56
2023/04/10 02:49:37;;;;;;;43.72;30.05;;;;;;;6.68;68.25;102329.91;7394496;19;20029;-57
2023/04/10 02:52:03;;;;;;;45.17;31.05;;;;;;;6.72;68.22;102330.63;7394413;19;20457;-57
2023/04/10 02:54:28;;;;;;;44.45;29.95;;;;;;;6.69;68.36;102328.97;7397014;19;19999;-57
2023/04/10 02:56:56;;;;;;;46.08;30.40;;;;;;;6.74;67.96;102328.81;7395847;19;20005;-56
2023/04/10 02:59:22;;;;;;;43.90;30.33;;;;;;;6.75;68.00;102327.88;7394328;19;20013;-57
2023/04/10 03:01:48;;;;;;;48.35;31.75;;;;;;;6.58;68.77;102325.03;7394473;19;20387;-57
2023/04/10 03:04:13;;;;;;;46.38;31.17;;;;;;;6.56;68.88;102327.75;7396140;19;20102;-57
2023/04/10 03:06:39;;;;;;;42.47;30.23;;;;;;;6.53;68.74;102327.88;7395880;19;19990;-57
2023/04/10 03:09:05;;;;;;;46.05;30.92;;;;;;;6.49;69.05;102324.50;7395377;19;20466;-57
2023/04/10 03:11:30;;;;;;;45.97;30.30;;;;;;;6.48;69.09;102321.91;7389054;19;20052;-57
2023/04/10 03:13:59;;;;;;;46.00;30.33;;;;;;;6.54;68.66;102316.38;7395149;19;20003;-57
2023/04/10 03:16:25;;;;;;;47.60;31.02;;;;;;;6.54;68.59;102319.00;7393148;19;20111;-57
2023/04/10 03:18:52;;;;;;;45.22;31.00;;;;;;;6.55;68.64;102315.47;7394842;19;20022;-58
2023/04/10 03:21:17;;;;;;;45.92;30.65;;;;;;;6.51;68.72;102319.16;7394490;19;20006;-57
2023/04/10 03:23:43;;;;;;;43.08;29.95;;;;;;;6.49;68.87;102306.00;7394342;19;20030;-57
2023/04/10 03:26:08;;;;;;;45.45;30.40;;;;;;;6.47;68.85;102306.97;7394640;19;19998;-58
2023/04/10 03:28:35;;;;;;;46.13;30.08;;;;;;;6.49;68.57;102300.72;7394801;19;19995;-58
2023/04/10 03:31:04;;;;;;;45.67;30.48;;;;;;;6.34;69.21;102303.94;7395123;19;20018;-58
2023/04/10 03:33:30;;;;;;;41.88;29.77;;;;;;;6.34;69.46;102297.81;7394797;19;20002;-58
2023/04/10 03:35:56;;;;;;;46.53;30.80;;;;;;;6.33;69.22;102301.38;7393311;19;20003;-58
2023/04/10 03:38:22;;;;;;;46.30;31.95;;;;;;;6.27;69.18;102298.03;7393796;19;20424;-58
2023/04/10 03:40:47;;;;;;;45.67;30.90;;;;;;;6.28;69.30;102293.66;7395364;19;20009;-61
2023/04/10 03:43:13;;;;;;;47.92;30.75;;;;;;;6.34;69.14;102290.75;7393483;19;20310;-59
2023/04/10 03:45:38;;;;;;;44.85;30.15;;;;;;;6.28;69.13;102293.66;7393223;19;19998;-59
2023/04/10 03:48:04;;;;;;;46.45;30.65;;;;;;;6.36;68.63;102290.69;7394719;19;20551;-58
2023/04/10 03:50:29;;;;;;;45.60;30.23;;;;;;;6.39;68.57;102287.94;7394463;19;20017;-59
2023/04/10 03:52:55;;;;;;;43.15;29.98;;;;;;;6.46;68.37;102292.06;7392507;19;20024;-58
2023/04/10 03:55:21;;;;;;;44.17;30.08;;;;;;;6.38;68.48;102288.88;7394100;19;20005;-59
2023/04/10 03:57:47;;;;;;;44.72;29.70;;;;;;;6.38;68.57;102289.72;7394697;19;20324;-59
2023/04/10 04:00:14;;;;;;;44.63;29.60;;;;;;;6.41;68.13;102291.41;7391773;19;20014;-58
2023/04/10 04:02:40;;;;;;;46.88;31.60;;;;;;;6.15;69.07;102295.03;7391393;19;20003;-59
2023/04/10 04:05:06;;;;;;;44.63;29.85;;;;;;;6.26;68.41;102284.91;7394287;19;19994;-59
2023/04/10 04:07:31;;;;;;;43.35;29.20;;;;;;;6.29;68.56;102284.81;7394147;19;20085;-57
2023/04/10 04:09:58;;;;;;;45.42;30.13;;;;;;;6.23;68.35;102292.94;7393869;19;20078;-57
2023/04/10 04:12:23;;;;;;;43.45;29.85;;;;;;;6.31;68.15;102290.84;7391888;19;20017;-59
2023/04/10 04:14:49;;;;;;;45.10;29.42;;;;;;;6.30;67.86;102283.88;7393986;19;20002;-58
2023/04/10 04:17:14;;;;;;;43.58;29.98;;;;;;;6.28;67.95;102289.22;7393562;19;19998;-58
2023/04/10 04:19:40;;;;;;;46.85;29.92;;;;;;;6.34;68.02;102288.09;7391687;19;20111;-57
2023/04/10 04:22:05;;;;;;;44.65;29.63;;;;;;;6.34;67.62;102282.81;7392454;19;20005;-57
2023/04/10 04:24:31;;;;;;;46.25;30.13;;;;;;;6.26;68.01;102284.91;7393032;19;19995;-58
2023/04/10 04:26:56;;;;;;;44.55;30.10;;;;;;;6.27;68.03;102281.34;7393296;19;19994;-57
2023/04/10 04:29:22;;;;;;;43.05;28.85;;;;;;;6.30;67.48;102291.78;7393389;19;20017;-59
2023/04/10 04:31:47;;;;;;;43.60;29.45;;;;;;;6.31;67.39;102289.06;7392475;19;20062;-59
2023/04/10 04:34:13;;;;;;;44.22;29.25;;;;;;;6.25;67.90;102291.13;7392795;19;20354;-57
2023/04/10 04:36:39;;;;;;;42.15;27.95;;;;;;;6.29;67.59;102284.81;7392331;19;20067;-58
2023/04/10 04:39:04;;;;;;;41.53;27.55;;;;;;;6.35;67.28;102283.69;7390226;19;20035;-58
2023/04/10 04:41:31;;;;;;;44.92;29.88;;;;;;;6.25;67.34;102286.69;7391084;19;20027;-58
2023/04/10 04:43:57;;;;;;;43.40;30.17;;;;;;;6.16;67.89;102279.13;7393387;19;20006;-58
2023/04/10 04:46:23;;;;;;;45.70;28.90;;;;;;;6.17;67.94;102291.41;7392611;19;20003;-58
2023/04/10 04:48:48;;;;;;;44.95;29.67;;;;;;;6.12;67.78;102290.72;7388637;19;20003;-59
2023/04/10 04:51:14;;;;;;;40.92;28.75;;;;;;;6.22;67.96;102285.97;7392453;19;20030;-59
2023/04/10 04:53:40;;;;;;;43.45;29.13;;;;;;;6.17;67.63;102288.78;7391152;19;20094;-59
2023/04/10 04:56:05;;;;;;;45.22;29.67;;;;;;;6.16;67.69;102283.53;7390825;19;20001;-58
2023/04/10 04:58:31;;;;;;;42.40;28.48;;;;;;;6.20;67.51;102287.78;7392336;19;19998;-59
2023/04/10 05:00:58;;;;;;;44.08;29.58;;;;;;;6.23;67.50;102288.53;7391657;19;20008;-58
2023/04/10 05:03:23;;;;;;;42.30;28.73;;;;;;;6.36;67.20;102299.47;7392262;19;20003;-58
2023/04/10 05:05:49;;;;;;;43.33;29.05;;;;;;;6.35;66.83;102294.25;7391629;19;19990;-59
2023/04/10 05:08:15;;;;;;;41.92;27.75;;;;;;;6.37;66.93;102298.59;7391661;19;20002;-59
2023/04/10 05:10:40;;;;;;;40.22;28.02;;;;;;;6.41;66.98;102297.53;7392278;19;19997;-59
2023/04/10 05:13:06;;;;;;;41.40;28.13;;;;;;;6.43;66.51;102290.44;7389758;19;20007;-59
2023/04/10 05:15:31;;;;;;;43.60;29.52;;;;;;;6.43;66.72;102295.72;7391112;19;20022;-59
2023/04/10 05:17:57;;;;;;;38.03;26.55;;;;;;;6.52;66.44;102297.13;7391015;19;20006;-59
2023/04/10 05:20:22;;;;;;;43.15;28.42;;;;;;;6.63;66.05;102294.03;7389348;19;19995;-58
2023/04/10 05:22:49;;;;;;;41.25;28.38;;;;;;;6.65;65.88;102287.75;7388105;19;20003;-59
2023/04/10 05:25:15;;;;;;;40.22;26.50;;;;;;;6.60;66.12;102296.81;7391997;19;20066;-59
2023/04/10 05:27:40;;;;;;;40.75;27.83;;;;;;;6.55;66.18;102299.63;7390397;19;19999;-58
2023/04/10 05:30:06;;;;;;;41.95;28.13;;;;;;;6.54;66.17;102274.13;7390801;19;19999;-58
2023/04/10 05:32:32;;;;;;;39.20;27.40;;;;;;;6.52;66.32;102274.22;7388788;19;20010;-58
2023/04/10 05:34:57;;;;;;;38.95;26.73;;;;;;;6.58;66.34;102270.44;7391635;19;20017;-58
2023/04/10 05:37:23;;;;;;;39.50;27.08;;;;;;;6.59;66.18;102268.69;7389806;19;20016;-58
2023/04/10 05:39:48;;;;;;;40.45;27.02;;;;;;;6.74;65.78;102262.78;7389784;19;20014;-59
2023/04/10 05:42:14;;;;;;;38.95;26.20;;;;;;;6.74;65.48;102265.41;7389972;19;20010;-59
2023/04/10 05:44:40;;;;;;;40.92;27.27;;;;;;;6.76;65.62;102266.19;7391141;19;19998;-58
2023/04/10 05:47:06;;;;;;;38.97;26.77;;;;;;;6.60;65.64;102262.47;7389320;19;20602;-58
2023/04/10 05:49:32;;;;;;;45.58;28.58;;;;;;;6.59;66.03;102261.63;7388855;19;20011;-58
2023/04/10 05:51:58;;;;;;;39.25;26.25;;;;;;;6.66;65.59;102264.84;7388429;19;20003;-58
2023/04/10 05:54:23;;;;;;;36.00;26.00;;;;;;;6.74;65.71;102260.13;7390686;19;20003;-58
2023/04/10 05:56:49;;;;;;;37.75;25.38;;;;;;;6.81;65.33;102258.06;7391487;19;20007;-59
2023/04/10 05:59:14;;;;;;;36.95;25.65;;;;;;;6.85;65.16;102257.00;7389414;19;19998;-59
2023/04/10 06:01:40;;;;;;;36.97;24.92;;;;;;;6.93;65.02;102254.91;7394758;19;20062;-56
2023/04/10 06:04:06;;;;;;;38.45;26.65;;;;;;;7.04;64.31;102255.31;7396559;19;20329;-58
2023/04/10 06:06:32;;;;;;;39.05;25.27;;;;;;;7.06;64.35;102256.13;7397152;19;20030;-57
2023/04/10 06:08:58;;;;;;;36.47;24.48;;;;;;;7.13;64.04;102247.00;7396966;19;20011;-58
2023/04/10 06:11:23;;;;;;;34.90;24.48;;;;;;;7.18;64.14;102246.78;7396225;19;20010;-57
2023/04/10 06:13:49;;;;;;;37.85;24.85;;;;;;;7.13;64.32;102243.50;7397997;19;20509;-58
2023/04/10 06:16:21;;;;;;;34.97;24.73;;;;;;;7.16;63.97;102246.88;7397749;19;19997;-58
2023/04/10 06:18:47;;;;;;;42.10;24.73;;;;;;;7.25;63.66;102242.94;7396814;19;20030;-57
2023/04/10 06:21:13;;;;;;;33.33;23.50;;;;;;;7.38;63.09;102244.09;7396407;19;19999;-56
2023/04/10 06:23:39;;;;;;;35.35;23.90;;;;;;;7.48;63.16;102240.13;7397655;19;20003;-57
2023/04/10 06:26:05;;;;;;;35.33;24.10;;;;;;;7.53;62.80;102230.19;7397523;19;20003;-57
2023/04/10 06:28:31;;;;;;;37.55;24.63;;;;;;;7.57;62.95;102228.28;7396910;19;20336;-58
2023/04/10 06:30:57;;;;;;;35.35;24.25;;;;;;;7.55;62.96;102227.50;7397247;19;19999;-58
2023/04/10 06:33:22;;;;;;;34.22;23.20;;;;;;;7.63;62.23;102227.16;7396616;19;20045;-58
2023/04/10 06:35:49;;;;;;;34.45;23.80;;;;;;;7.68;62.50;102230.44;7396412;19;20007;-58
2023/04/10 06:38:15;;;;;;;34.20;23.08;;;;;;;7.78;61.85;102223.78;7397224;19;20026;-58
2023/04/10 06:40:40;;;;;;;32.10;22.02;;;;;;;7.79;62.19;102224.66;7393971;19;19999;-58
2023/04/10 06:43:06;;;;;;;35.17;22.77;;;;;;;7.87;61.47;102223.34;7397422;19;20054;-58
2023/04/10 06:45:31;;;;;;;32.45;21.92;;;;;;;7.85;61.45;102221.72;7396237;19;20392;-58
2023/04/10 06:47:57;;;;;;;32.05;22.10;;;;;;;7.89;61.39;102226.78;7397566;19;20015;-57
2023/04/10 06:50:22;;;;;;;31.80;21.95;;;;;;;7.97;61.23;102226.44;7396169;19;20007;-58
2023/04/10 06:52:48;;;;;;;31.90;22.20;;;;;;;8.01;61.18;102233.28;7394417;19;20018;-58
2023/04/10 06:55:13;;;;;;;32.47;22.50;;;;;;;8.00;60.92;102228.94;7395398;19;19999;-58
2023/04/10 06:57:39;;;;;;;31.40;22.40;;;;;;;7.99;60.89;102236.00;7396907;19;20002;-57
2023/04/10 07:00:06;;;;;;;31.25;21.90;;;;;;;7.93;61.20;102233.66;7394018;19;20076;-58
2023/04/10 07:02:31;;;;;;;32.63;22.13;;;;;;;8.00;60.68;102223.66;7394006;19;20334;-58
2023/04/10 07:04:57;;;;;;;31.77;21.50;;;;;;;8.12;60.40;102230.13;7396479;19;20459;-58
2023/04/10 07:07:23;;;;;;;30.90;21.30;;;;;;;8.15;60.23;102224.69;7396865;19;19994;-59
2023/04/10 07:09:48;;;;;;;32.50;21.83;;;;;;;8.16;60.33;102221.97;7395849;19;19998;-59
2023/04/10 07:12:14;;;;;;;31.48;21.23;;;;;;;8.20;60.26;102220.88;7391342;19;20034;-58
2023/04/10 07:14:40;;;;;;;31.98;21.45;;;;;;;8.26;60.07;102219.75;7393690;19;20821;-58
2023/04/10 07:17:05;;;;;;;29.35;20.10;;;;;;;8.28;60.14;102212.59;7393925;19;20012;-58
2023/04/10 07:19:31;;;;;;;31.02;20.63;;;;;;;8.35;60.13;102211.38;7394352;19;19995;-59
2023/04/10 07:21:57;;;;;;;30.10;20.30;;;;;;;8.40;60.02;102213.78;7394147;19;20466;-58
2023/04/10 07:24:22;;;;;;;32.13;20.70;;;;;;;8.44;59.68;102208.25;7395446;19;20003;-58
2023/04/10 07:26:48;;;;;;;29.20;19.67;;;;;;;8.52;59.56;102214.97;7395491;19;20002;-59
2023/04/10 07:29:14;;;;;;;28.25;19.70;;;;;;;8.65;59.13;102211.63;7395612;19;19991;-57
2023/04/10 07:31:40;;;;;;;26.83;19.55;;;;;;;8.64;58.73;102206.41;7394814;19;19998;-58
2023/04/10 07:34:06;;;;;;;28.45;19.98;;;;;;;8.61;59.06;102207.44;7395459;19;20003;-57
2023/04/10 07:36:32;;;;;;;29.63;19.98;;;;;;;8.72;58.93;102193.63;7395251;19;20010;-57
2023/04/10 07:38:58;;;;;;;28.23;19.20;;;;;;;8.78;58.76;102193.31;7394863;19;20300;-58
2023/04/10 07:41:24;;;;;;;30.08;20.15;;;;;;;8.86;58.80;102190.28;7393798;19;20002;-58
2023/04/10 07:43:49;;;;;;;26.95;19.63;;;;;;;8.90;58.38;102187.38;7394416;19;20015;-57
2023/04/10 07:46:16;;;;;;;25.75;17.80;;;;;;;8.93;58.76;102184.56;7394001;19;19994;-58
2023/04/10 07:48:41;;;;;;;27.23;18.85;;;;;;;9.00;58.40;102187.75;7394326;19;20002;-58
2023/04/10 07:51:08;;;;;;;26.80;18.60;;;;;;;9.08;58.49;102187.38;7394406;19;20313;-58
2023/04/10 07:53:37;;;;;;;25.35;17.80;;;;;;;9.17;57.98;102177.09;7398074;19;20005;-59
2023/04/10 07:56:04;;;;;;;26.23;18.10;;;;;;;9.22;57.93;102172.44;7394748;19;19995;-59
2023/04/10 07:58:30;;;;;;;26.20;17.60;;;;;;;9.31;57.93;102168.44;7393894;19;20022;-58
2023/04/10 08:00:56;;;;;;;26.05;17.33;;;;;;;9.33;57.33;102171.88;7393499;19;20344;-58
2023/04/10 08:03:22;;;;;;;24.70;16.67;;;;;;;9.37;57.25;102162.81;7394932;19;19995;-58
2023/04/10 08:05:48;;;;;;;26.58;17.35;;;;;;;9.44;57.45;102168.59;7393513;19;20435;-59
2023/04/10 08:08:14;;;;;;;25.00;16.65;;;;;;;9.47;57.10;102160.47;7393731;19;19998;-59
2023/04/10 08:10:40;;;;;;;24.10;16.60;;;;;;;9.55;56.95;102150.31;7391391;19;20327;-59
2023/04/10 08:13:05;;;;;;;24.50;16.65;;;;;;;9.64;56.93;102154.25;7391469;19;20010;-59
2023/04/10 08:15:31;;;;;;;25.63;16.92;;;;;;;9.74;56.73;102134.22;7392552;19;20007;-59
2023/04/10 08:17:56;;;;;;;24.52;16.15;;;;;;;9.83;56.57;102139.06;7393527;19;19999;-58
2023/04/10 08:20:22;;;;;;;24.52;16.58;;;;;;;9.91;56.26;102133.31;7391877;19;19999;-58
2023/04/10 08:22:54;;;;;;;25.10;15.93;;;;;;;9.99;55.86;102131.06;7390446;19;20332;-58
2023/04/10 08:25:20;;;;;;;22.98;15.88;;;;;;;10.07;55.67;102120.84;7393179;19;20022;-58
2023/04/10 08:27:45;;;;;;;22.95;15.45;;;;;;;10.14;55.77;102116.03;7393938;19;20320;-59
2023/04/10 08:30:11;;;;;;;22.20;15.32;;;;;;;10.19;55.59;102103.34;7393448;19;20019;-59
2023/04/10 08:32:37;;;;;;;24.33;14.82;;;;;;;10.24;55.02;102103.91;7392370;19;20058;-59
2023/04/10 08:35:03;;;;;;;22.85;15.05;;;;;;;10.27;55.12;102105.53;7393279;19;20019;-58
2023/04/10 08:37:29;;;;;;;20.95;14.07;;;;;;;10.30;54.82;102103.56;7392846;19;20003;-59
2023/04/10 08:39:54;;;;;;;22.80;14.45;;;;;;;10.42;55.21;102107.28;7390837;19;20066;-58
2023/04/10 08:42:21;;;;;;;22.90;15.15;;;;;;;10.54;54.97;102097.72;7389405;19;19998;-59
2023/04/10 08:44:48;;;;;;;23.15;15.23;;;;;;;10.61;54.72;102109.69;7393537;19;19994;-58
2023/04/10 08:47:19;;;;;;;21.58;14.45;;;;;;;10.72;54.64;102099.28;7393457;19;19994;-58
2023/04/10 08:49:55;;;;;;;19.95;13.85;;;;;;;10.82;54.43;102103.09;7392249;19;20324;-59
2023/04/10 08:52:24;;;;;;;22.27;14.25;;;;;;;10.95;54.37;102097.00;7391685;19;20022;-59
2023/04/10 08:54:56;;;;;;;20.63;13.35;;;;;;;10.99;53.28;102085.22;7393210;19;20027;-60
2023/04/10 08:57:22;;;;;;;20.08;12.77;;;;;;;11.05;52.72;102084.81;7392998;19;20006;-60
2023/04/10 08:59:50;;;;;;;19.55;13.02;;;;;;;11.12;52.63;102086.16;7390257;19;20412;-59
2023/04/10 09:02:16;;;;;;;19.42;12.63;;;;;;;11.16;52.78;102079.69;7391095;19;20011;-60
2023/04/10 09:04:47;;;;;;;19.23;12.73;;;;;;;11.19;52.70;102079.50;7394544;19;20002;-59
2023/04/10 09:07:13;;;;;;;18.85;12.90;;;;;;;11.26;51.80;102070.22;7391890;19;20005;-59
2023/04/10 09:09:39;;;;;;;19.13;12.63;;;;;;;11.28;51.31;102070.09;7391269;19;19995;-60
2023/04/10 09:12:05;;;;;;;18.55;11.82;;;;;;;11.32;51.61;102059.19;7389895;19;20064;-59
2023/04/10 09:14:33;;;;;;;18.45;12.02;;;;;;;11.39;51.24;102052.53;7391483;19;20021;-59
2023/04/10 09:17:20;;;;;;;17.00;11.63;;;;;;;11.53;48.66;102046.28;7391529;19;20003;-59
2023/04/10 09:19:49;;;;;;;17.27;11.57;;;;;;;11.56;48.98;102051.41;7390337;19;19995;-59
2023/04/10 09:22:15;;;;;;;15.95;10.57;;;;;;;11.64;49.01;102046.44;7390672;19;19995;-60
2023/04/10 09:24:43;;;;;;;17.80;11.68;;;;;;;11.81;48.93;102034.69;7390821;19;19994;-60
2023/04/10 09:27:10;;;;;;;19.05;10.60;;;;;;;11.92;47.57;102027.75;7391437;19;20006;-59
2023/04/10 09:29:41;;;;;;;18.23;10.93;;;;;;;12.06;48.03;102025.03;7391219;19;20463;-59
2023/04/10 09:32:07;;;;;;;16.45;10.13;;;;;;;12.21;47.42;102015.13;7389857;19;19998;-60
2023/04/10 09:34:32;;;;;;;14.23;9.40;;;;;;;12.32;45.37;102008.09;7390537;19;20025;-60
2023/04/10 09:37:02;;;;;;;15.30;10.10;;;;;;;12.36;46.23;102001.59;7388216;19;20080;-60
2023/04/10 09:39:37;;;;;;;15.40;9.80;;;;;;;12.37;46.37;101992.63;7390170;19;19998;-60
2023/04/10 09:42:03;;;;;;;18.10;9.95;;;;;;;12.42;45.49;101988.78;7389918;19;20475;-59
2023/04/10 09:44:34;;;;;;;13.10;9.02;;;;;;;12.44;45.73;101989.56;7390192;19;20013;-60
2023/04/10 09:47:23;;;;;;;14.10;9.25;;;;;;;12.54;45.17;101982.66;7389922;19;20007;-59
2023/04/10 09:49:55;;;;;;;14.68;8.77;;;;;;;12.52;45.19;101969.41;7390533;19;20005;-60
2023/04/10 09:52:29;;;;;;;15.63;8.80;;;;;;;12.48;44.21;101972.38;7388490;19;20828;-60
2023/04/10 09:55:03;;;;;;;;;;;;;;;12.43;43.53;101971.88;7390155;19;20325;-59
2023/04/10 09:57:30;;;;;;;13.82;8.52;;;;;;;12.42;44.88;101962.13;7390232;19;19983;-61
2023/04/10 09:59:58;;;;;;;15.95;8.77;;;;;;;12.45;43.97;101956.59;7387602;19;19995;-60
2023/04/10 10:02:27;;;;;;;15.95;8.45;;;;;;;12.42;44.16;101952.31;7387436;19;20009;-60
2023/04/10 10:04:53;;;;;;;15.57;9.07;;;;;;;12.46;43.33;101942.31;7388790;19;19998;-59
2023/04/10 10:07:22;;;;;;;13.98;8.32;;;;;;;12.50;43.85;101933.16;7389160;19;20075;-59
2023/04/10 10:09:50;;;;;;;15.25;7.70;;;;;;;12.60;44.55;101932.41;7389392;19;20002;-60
2023/04/10 10:12:28;;;;;;;12.10;7.55;;;;;;;12.73;41.95;101932.38;7389111;19;20023;-59
2023/04/10 10:15:05;;;;;;;15.98;7.43;;;;;;;12.86;41.66;101921.66;7389282;19;20098;-60
2023/04/10 10:17:42;;;;;;;14.77;7.60;;;;;;;12.79;42.05;101915.91;7391060;19;20066;-60
2023/04/10 10:20:10;;;;;;;14.40;8.07;;;;;;;12.79;41.77;101904.41;7387804;19;20007;-59
2023/04/10 10:22:37;;;;;;;14.63;7.90;;;;;;;12.85;40.09;101910.16;7387397;19;19999;-59
2023/04/10 10:25:03;;;;;;;13.73;7.82;;;;;;;12.84;40.85;101902.25;7387333;19;19999;-60
2023/04/10 10:27:33;;;;;;;12.60;7.25;;;;;;;12.90;40.62;101908.97;7388043;19;20066;-60
2023/04/10 10:29:59;;;;;;;14.40;7.18;;;;;;;12.93;41.32;101904.25;7389135;19;19998;-59
2023/04/10 10:32:26;;;;;;;12.93;7.93;;;;;;;12.96;42.13;101896.03;7387980;19;20018;-59
2023/04/10 10:34:52;;;;;;;14.95;8.48;;;;;;;13.07;41.10;101887.22;7389268;19;20019;-59
2023/04/10 10:37:20;;;;;;;11.98;7.43;;;;;;;13.08;40.20;101891.59;7388437;19;20007;-59
2023/04/10 10:39:59;;;;;;;13.13;7.60;;;;;;;13.14;40.02;101884.94;7388408;19;20050;-60
2023/04/10 10:43:21;;;;;;;13.45;8.07;;;;;;;13.17;39.06;101882.03;7387575;19;20002;-59
2023/04/10 10:45:53;;;;;;;13.98;7.90;;;;;;;13.20;40.66;101872.00;7385002;19;20009;-60
2023/04/10 10:48:19;;;;;;;14.13;7.53;;;;;;;13.36;39.01;101867.19;7393276;19;20730;-59
2023/04/10 10:50:57;;;;;;;13.13;7.47;;;;;;;13.45;38.86;101868.31;7395845;19;20007;-60
2023/04/10 10:53:34;;;;;;;13.18;7.85;;;;;;;13.58;39.76;101846.88;7395589;19;20030;-60
2023/04/10 10:56:19;;;;;;;13.43;7.22;;;;;;;13.72;38.98;101837.78;7395700;19;20003;-59
2023/04/10 10:58:46;;;;;;;13.35;7.63;;;;;;;13.89;39.23;101841.84;7394721;19;19995;-60
2023/04/10 11:01:12;;;;;;;11.60;7.43;;;;;;;14.08;38.54;101839.41;7394657;19;20471;-60
2023/04/10 11:03:38;;;;;;;12.50;7.47;;;;;;;14.21;38.86;101832.09;7395954;19;20007;-60
2023/04/10 11:06:08;;;;;;;13.50;7.57;;;;;;;14.25;38.65;101820.19;7396194;19;20002;-60
2023/04/10 11:08:42;;;;;;;14.57;8.10;;;;;;;14.27;37.28;101818.25;7393037;19;20350;-60
2023/04/10 11:11:24;;;;;;;12.02;7.25;;;;;;;14.28;37.57;101827.09;7395770;19;20453;-60
2023/04/10 11:13:55;;;;;;;12.57;6.90;;;;;;;14.26;36.85;101805.03;7392274;19;20023;-60
2023/04/10 11:16:42;;;;;;;12.70;6.68;;;;;;;14.33;36.23;101796.38;7395885;19;19998;-60
2023/04/10 11:19:13;;;;;;;12.13;7.55;;;;;;;14.35;37.33;101803.41;7393938;19;20090;-60